createdAt,value
2019-05-05T00:01:25.568Z,3.00
2019-05-05T00:04:04.503Z,2.90
2019-05-05T00:06:34.273Z,2.90
2019-05-05T00:09:05.455Z,2.90
2019-05-05T00:11:57.071Z,2.90
2019-05-05T00:14:44.128Z,2.90
2019-05-05T00:17:17.427Z,2.90
2019-05-05T00:19:46.609Z,2.90
2019-05-05T00:22:16.041Z,2.80
2019-05-05T00:24:45.210Z,2.80
2019-05-05T00:27:15.082Z,2.70
2019-05-05T00:29:45.298Z,2.70
2019-05-05T00:32:15.472Z,2.60
2019-05-05T00:34:45.074Z,2.60
2019-05-05T00:37:15.196Z,2.60
2019-05-05T00:39:45.244Z,2.60
2019-05-05T00:42:15.522Z,2.50
2019-05-05T00:44:44.991Z,2.50
2019-05-05T00:47:48.479Z,2.50
2019-05-05T00:50:19.903Z,2.60
2019-05-05T00:52:49.371Z,2.60
2019-05-05T00:55:18.540Z,2.70
2019-05-05T00:57:47.903Z,2.70
2019-05-05T01:00:39.505Z,2.70
2019-05-05T01:03:09.501Z,2.70
2019-05-05T01:05:51.363Z,2.80
2019-05-05T01:08:24.943Z,2.80
2019-05-05T01:10:54.784Z,2.80
2019-05-05T01:13:24.677Z,2.80
2019-05-05T01:15:54.249Z,2.80
2019-05-05T01:18:24.556Z,2.80
2019-05-05T01:20:55.209Z,2.80
2019-05-05T01:23:25.036Z,2.80
2019-05-05T01:25:54.455Z,2.80
2019-05-05T01:28:24.945Z,2.70
2019-05-05T01:30:57.761Z,2.70
2019-05-05T01:33:41.369Z,2.80
2019-05-05T01:36:10.604Z,2.90
2019-05-05T01:38:58.849Z,3.00
2019-05-05T01:41:40.643Z,3.00
2019-05-05T01:44:10.239Z,3.10
2019-05-05T01:46:39.451Z,3.10
2019-05-05T01:49:08.629Z,3.10
2019-05-05T01:51:37.930Z,3.10
2019-05-05T01:54:07.198Z,3.10
2019-05-05T01:56:36.528Z,3.10
2019-05-05T01:59:06.131Z,3.10
2019-05-05T02:01:35.399Z,3.00
2019-05-05T02:04:05.625Z,3.00
2019-05-05T02:06:35.293Z,3.00
2019-05-05T02:09:05.893Z,3.00
2019-05-05T02:11:35.490Z,3.00
2019-05-05T02:14:05.210Z,3.00
2019-05-05T02:16:34.776Z,3.00
2019-05-05T02:19:05.211Z,3.00
2019-05-05T02:21:35.423Z,3.00
2019-05-05T02:24:05.333Z,3.00
2019-05-05T02:26:35.442Z,3.00
2019-05-05T02:29:19.640Z,3.00
2019-05-05T02:32:06.785Z,3.00
2019-05-05T02:34:40.059Z,2.90
2019-05-05T02:37:09.325Z,2.90
2019-05-05T02:39:45.057Z,2.90
2019-05-05T02:42:09.865Z,2.90
2019-05-05T02:44:40.816Z,2.90
2019-05-05T02:47:41.171Z,2.80
2019-05-05T02:50:10.705Z,2.80
2019-05-05T02:52:41.160Z,2.80
2019-05-05T02:55:14.573Z,2.80
2019-05-05T02:57:44.011Z,2.70
2019-05-05T03:00:31.135Z,2.70
2019-05-05T03:03:01.513Z,2.70
2019-05-05T03:05:30.761Z,2.60
2019-05-05T03:08:00.236Z,2.60
2019-05-05T03:10:30.786Z,2.60
2019-05-05T03:13:01.352Z,2.60
2019-05-05T03:15:46.529Z,2.60
2019-05-05T03:18:15.811Z,2.60
2019-05-05T03:20:44.974Z,2.60
2019-05-05T03:23:14.564Z,2.60
2019-05-05T03:25:44.337Z,2.60
2019-05-05T03:28:13.692Z,2.70
2019-05-05T03:30:45.410Z,2.70
2019-05-05T03:33:16.249Z,2.70
2019-05-05T03:35:46.770Z,2.70
2019-05-05T03:38:17.029Z,2.70
2019-05-05T03:40:49.573Z,2.70
2019-05-05T03:43:26.047Z,2.70
2019-05-05T03:45:57.971Z,2.60
2019-05-05T03:48:27.586Z,2.70
2019-05-05T03:50:57.731Z,2.60
2019-05-05T03:53:27.191Z,2.70
2019-05-05T03:55:56.754Z,2.70
2019-05-05T03:58:26.515Z,2.70
2019-05-05T04:01:21.121Z,2.70
2019-05-05T04:03:50.307Z,2.70
2019-05-05T04:06:36.849Z,2.70
2019-05-05T04:09:08.301Z,2.70
2019-05-05T04:11:37.683Z,2.70
2019-05-05T04:14:06.983Z,2.80
2019-05-05T04:16:43.588Z,2.80
2019-05-05T04:19:13.888Z,2.80
2019-05-05T04:21:44.899Z,2.80
2019-05-05T04:24:14.627Z,2.80
2019-05-05T04:26:44.134Z,2.90
2019-05-05T04:29:13.972Z,2.90
2019-05-05T04:31:43.689Z,2.90
2019-05-05T04:34:13.546Z,2.90
2019-05-05T04:36:44.393Z,2.90
2019-05-05T04:39:14.355Z,3.00
2019-05-05T04:41:44.083Z,3.00
2019-05-05T04:44:14.845Z,3.00
2019-05-05T04:46:46.285Z,3.10
2019-05-05T04:49:33.978Z,3.10
2019-05-05T04:52:06.603Z,3.10
2019-05-05T04:54:44.736Z,3.20
2019-05-05T04:57:14.964Z,3.20
2019-05-05T04:59:44.560Z,3.30
2019-05-05T05:02:26.945Z,3.40
2019-05-05T05:04:59.994Z,3.50
2019-05-05T05:07:29.567Z,3.50
2019-05-05T05:09:58.861Z,3.60
2019-05-05T05:12:28.104Z,3.60
2019-05-05T05:14:57.287Z,3.70
2019-05-05T05:17:33.879Z,3.80
2019-05-05T05:20:03.805Z,3.90
2019-05-05T05:22:33.491Z,4.00
2019-05-05T05:25:04.429Z,4.10
2019-05-05T05:27:34.212Z,4.20
2019-05-05T05:30:04.648Z,4.30
2019-05-05T05:32:34.096Z,4.40
2019-05-05T05:35:03.801Z,4.60
2019-05-05T05:37:34.267Z,4.70
2019-05-05T05:40:14.439Z,4.70
2019-05-05T05:42:44.007Z,4.80
2019-05-05T05:45:29.310Z,4.90
2019-05-05T05:48:06.323Z,4.90
2019-05-05T05:50:39.910Z,5.00
2019-05-05T05:53:09.134Z,5.10
2019-05-05T05:55:38.472Z,5.20
2019-05-05T05:58:07.932Z,5.20
2019-05-05T06:00:37.166Z,5.30
2019-05-05T06:03:06.654Z,5.40
2019-05-05T06:05:35.966Z,5.40
2019-05-05T06:08:05.193Z,5.60
2019-05-05T06:10:34.440Z,5.70
2019-05-05T06:13:04.277Z,5.80
2019-05-05T06:15:34.498Z,5.90
2019-05-05T06:18:04.748Z,6.00
2019-05-05T06:20:36.362Z,6.10
2019-05-05T06:23:05.632Z,6.20
2019-05-05T06:25:37.941Z,6.50
2019-05-05T06:28:06.503Z,6.70
2019-05-05T06:30:35.829Z,6.80
2019-05-05T06:33:13.617Z,6.80
2019-05-05T06:35:44.439Z,6.80
2019-05-05T06:38:15.495Z,6.70
2019-05-05T06:40:53.600Z,6.80
2019-05-05T06:43:44.731Z,6.90
2019-05-05T06:46:16.760Z,6.90
2019-05-05T06:48:46.461Z,7.00
2019-05-05T06:51:15.810Z,7.20
2019-05-05T06:53:45.044Z,7.50
2019-05-05T06:56:14.698Z,7.60
2019-05-05T06:58:44.917Z,7.80
2019-05-05T07:01:14.678Z,8.30
2019-05-05T07:03:44.018Z,8.60
2019-05-05T07:06:14.699Z,8.60
2019-05-05T07:08:44.129Z,8.50
2019-05-05T07:11:14.488Z,8.40
2019-05-05T07:13:44.450Z,8.40
2019-05-05T07:16:15.023Z,8.20
2019-05-05T07:18:44.800Z,8.10
2019-05-05T07:21:14.349Z,8.10
2019-05-05T07:23:44.633Z,8.20
2019-05-05T07:26:14.506Z,8.20
2019-05-05T07:28:44.851Z,8.20
2019-05-05T07:31:14.489Z,8.20
2019-05-05T07:33:43.949Z,8.30
2019-05-05T07:36:34.147Z,8.20
2019-05-05T07:39:05.500Z,8.30
2019-05-05T07:41:35.308Z,8.20
2019-05-05T07:44:04.926Z,8.20
2019-05-05T07:46:34.814Z,8.20
2019-05-05T07:49:04.175Z,8.10
2019-05-05T07:51:33.715Z,8.10
2019-05-05T07:54:03.843Z,8.10
2019-05-05T07:56:34.396Z,8.10
2019-05-05T07:59:04.015Z,8.10
2019-05-05T08:01:33.834Z,8.20
2019-05-05T08:04:04.479Z,8.20
2019-05-05T08:06:34.076Z,8.30
2019-05-05T08:09:05.908Z,8.40
2019-05-05T08:11:35.416Z,8.40
2019-05-05T08:14:05.255Z,8.50
2019-05-05T08:17:08.959Z,8.60
2019-05-05T08:19:45.236Z,8.60
2019-05-05T08:22:14.552Z,8.70
2019-05-05T08:25:01.108Z,8.70
2019-05-05T08:27:47.897Z,8.60
2019-05-05T08:30:24.420Z,8.70
2019-05-05T08:32:54.612Z,8.90
2019-05-05T08:35:23.993Z,9.10
2019-05-05T08:37:54.249Z,9.30
2019-05-05T08:40:24.069Z,9.40
2019-05-05T08:42:54.078Z,9.50
2019-05-05T08:45:26.489Z,9.50
2019-05-05T08:47:54.383Z,9.70
2019-05-05T08:50:26.460Z,9.80
2019-05-05T08:52:55.322Z,10.00
2019-05-05T08:55:28.264Z,10.30
2019-05-05T08:57:55.598Z,10.50
2019-05-05T09:00:25.138Z,10.30
2019-05-05T09:02:54.484Z,9.90
2019-05-05T09:05:24.126Z,9.70
2019-05-05T09:07:54.767Z,9.50
2019-05-05T09:10:24.108Z,9.40
2019-05-05T09:12:54.296Z,9.30
2019-05-05T09:15:24.304Z,9.60
2019-05-05T09:17:54.436Z,9.80
2019-05-05T09:20:24.265Z,9.70
2019-05-05T09:22:57.181Z,9.60
2019-05-05T09:25:44.797Z,9.40
2019-05-05T09:28:27.449Z,9.20
2019-05-05T09:30:57.043Z,9.00
2019-05-05T09:33:26.326Z,8.80
2019-05-05T09:35:56.150Z,8.80
2019-05-05T09:38:25.812Z,9.40
2019-05-05T09:40:55.066Z,9.80
2019-05-05T09:43:24.275Z,10.10
2019-05-05T09:45:54.431Z,10.30
2019-05-05T09:48:24.374Z,10.30
2019-05-05T09:50:54.090Z,10.40
2019-05-05T09:53:27.201Z,10.50
2019-05-05T09:55:55.147Z,10.80
2019-05-05T09:58:24.401Z,10.70
2019-05-05T10:00:54.710Z,10.90
2019-05-05T10:03:24.565Z,11.20
2019-05-05T10:05:54.147Z,11.30
2019-05-05T10:08:23.642Z,11.20
2019-05-05T10:10:54.717Z,11.10
2019-05-05T10:13:24.135Z,11.40
2019-05-05T10:15:54.963Z,11.40
2019-05-05T10:18:44.803Z,11.50
2019-05-05T10:21:17.547Z,11.30
2019-05-05T10:23:47.620Z,11.60
2019-05-05T10:26:16.904Z,11.80
2019-05-05T10:28:46.140Z,11.50
2019-05-05T10:31:15.858Z,11.20
2019-05-05T10:33:50.534Z,10.80
2019-05-05T10:36:19.810Z,11.00
2019-05-05T10:38:53.806Z,11.60
2019-05-05T10:41:23.875Z,12.10
2019-05-05T10:43:54.183Z,12.50
2019-05-05T10:46:23.628Z,12.40
2019-05-05T10:48:53.794Z,12.30
2019-05-05T10:51:23.829Z,12.00
2019-05-05T10:53:54.513Z,11.50
2019-05-05T10:56:24.207Z,11.10
2019-05-05T10:58:54.659Z,11.00
2019-05-05T11:01:23.905Z,10.90
2019-05-05T11:03:53.272Z,11.10
2019-05-05T11:06:22.759Z,11.80
2019-05-05T11:08:53.891Z,12.20
2019-05-05T11:11:23.908Z,12.20
2019-05-05T11:13:54.266Z,11.30
2019-05-05T11:16:23.533Z,10.40
2019-05-05T11:18:54.009Z,10.00
2019-05-05T11:21:24.456Z,9.80
2019-05-05T11:23:54.028Z,10.10
2019-05-05T11:26:24.645Z,10.70
2019-05-05T11:28:54.186Z,10.90
2019-05-05T11:31:24.013Z,11.20
2019-05-05T11:34:05.976Z,11.30
2019-05-05T11:36:39.489Z,11.50
2019-05-05T11:39:10.047Z,12.00
2019-05-05T11:41:39.620Z,12.20
2019-05-05T11:44:08.964Z,12.20
2019-05-05T11:46:38.196Z,11.90
2019-05-05T11:49:07.792Z,11.70
2019-05-05T11:51:36.992Z,11.50
2019-05-05T11:54:06.214Z,11.20
2019-05-05T11:56:35.802Z,11.20
2019-05-05T11:59:05.250Z,11.20
2019-05-05T12:01:34.426Z,11.50
2019-05-05T12:04:06.053Z,11.80
2019-05-05T12:06:35.311Z,11.90
2019-05-05T12:09:17.724Z,11.80
2019-05-05T12:11:46.943Z,11.90
2019-05-05T12:14:18.314Z,11.70
2019-05-05T12:16:47.849Z,11.70
2019-05-05T12:19:17.106Z,12.00
2019-05-05T12:21:46.338Z,11.80
2019-05-05T12:24:20.765Z,11.80
2019-05-05T12:27:06.868Z,12.20
2019-05-05T12:29:59.298Z,12.50
2019-05-05T12:32:28.526Z,12.60
2019-05-05T12:34:57.679Z,12.30
2019-05-05T12:37:27.224Z,11.30
2019-05-05T12:39:56.455Z,10.00
2019-05-05T12:42:25.931Z,9.70
2019-05-05T12:45:00.289Z,9.70
2019-05-05T12:47:48.569Z,10.20
2019-05-05T12:50:17.900Z,11.10
2019-05-05T12:52:47.075Z,11.80
2019-05-05T12:55:16.267Z,11.60
2019-05-05T12:57:45.420Z,11.30
2019-05-05T13:00:15.821Z,11.50
2019-05-05T13:02:45.056Z,11.70
2019-05-05T13:05:14.520Z,11.70
2019-05-05T13:07:44.227Z,11.90
2019-05-05T13:10:16.554Z,12.00
2019-05-05T13:12:46.347Z,12.00
2019-05-05T13:15:16.130Z,12.10
2019-05-05T13:17:45.641Z,12.30
2019-05-05T13:20:26.983Z,12.20
2019-05-05T13:23:14.563Z,11.90
2019-05-05T13:26:14.366Z,12.00
2019-05-05T13:28:43.968Z,11.90
2019-05-05T13:31:13.994Z,11.60
2019-05-05T13:33:44.203Z,11.50
2019-05-05T13:36:14.064Z,11.60
2019-05-05T13:38:43.911Z,12.00
2019-05-05T13:41:13.179Z,12.50
2019-05-05T13:43:43.066Z,12.50
2019-05-05T13:46:17.380Z,12.70
2019-05-05T13:48:46.546Z,12.60
2019-05-05T13:51:16.145Z,12.20
2019-05-05T13:53:46.294Z,12.10
2019-05-05T13:56:15.618Z,12.00
2019-05-05T13:58:44.982Z,11.80
2019-05-05T14:01:14.873Z,11.50
2019-05-05T14:03:44.810Z,11.50
2019-05-05T14:06:14.021Z,11.80
2019-05-05T14:08:44.790Z,12.00
2019-05-05T14:11:14.355Z,12.10
2019-05-05T14:13:45.481Z,11.90
2019-05-05T14:16:14.689Z,12.10
2019-05-05T14:18:44.517Z,12.20
2019-05-05T14:21:14.022Z,12.10
2019-05-05T14:23:58.261Z,11.60
2019-05-05T14:26:28.544Z,11.10
2019-05-05T14:28:58.359Z,10.30
2019-05-05T14:31:33.715Z,9.60
2019-05-05T14:34:05.339Z,9.30
2019-05-05T14:36:41.183Z,9.30
2019-05-05T14:39:11.649Z,9.20
2019-05-05T14:41:40.824Z,9.10
2019-05-05T14:44:10.134Z,9.20
2019-05-05T14:46:39.785Z,9.40
2019-05-05T14:49:09.138Z,9.70
2019-05-05T14:51:38.833Z,10.00
2019-05-05T14:54:10.531Z,10.20
2019-05-05T14:56:39.584Z,10.50
2019-05-05T14:59:08.750Z,10.60
2019-05-05T15:01:37.959Z,10.90
2019-05-05T15:04:09.035Z,11.00
2019-05-05T15:06:45.534Z,11.20
2019-05-05T15:09:29.482Z,11.30
2019-05-05T15:12:09.939Z,11.50
2019-05-05T15:14:39.120Z,11.50
2019-05-05T15:17:08.463Z,11.60
2019-05-05T15:19:37.698Z,11.40
2019-05-05T15:22:07.202Z,11.50
2019-05-05T15:24:36.725Z,11.40
2019-05-05T15:27:05.909Z,11.40
2019-05-05T15:29:35.159Z,11.50
2019-05-05T15:32:04.447Z,11.40
2019-05-05T15:34:34.379Z,10.90
2019-05-05T15:37:04.460Z,10.70
2019-05-05T15:39:33.801Z,10.50
2019-05-05T15:42:04.659Z,10.40
2019-05-05T15:44:34.456Z,10.40
2019-05-05T15:47:03.812Z,10.40
2019-05-05T15:49:33.087Z,10.40
2019-05-05T15:52:04.176Z,10.50
2019-05-05T15:54:33.944Z,10.40
2019-05-05T15:57:07.848Z,10.30
2019-05-05T15:59:34.800Z,10.30
2019-05-05T16:02:04.301Z,10.50
2019-05-05T16:04:34.202Z,10.60
2019-05-05T16:07:04.588Z,10.70
2019-05-05T16:09:34.006Z,10.80
2019-05-05T16:12:03.765Z,10.90
2019-05-05T16:14:35.505Z,10.80
2019-05-05T16:17:43.846Z,10.70
2019-05-05T16:20:16.629Z,10.50
2019-05-05T16:22:54.177Z,10.20
2019-05-05T16:25:23.686Z,10.20
2019-05-05T16:27:52.995Z,10.20
2019-05-05T16:30:23.545Z,10.10
2019-05-05T16:32:55.003Z,10.00
2019-05-05T16:35:24.043Z,9.90
2019-05-05T16:37:53.651Z,9.80
2019-05-05T16:40:25.793Z,9.70
2019-05-05T16:42:54.417Z,9.70
2019-05-05T16:45:24.644Z,9.60
2019-05-05T16:47:54.547Z,9.50
2019-05-05T16:50:25.053Z,9.40
2019-05-05T16:53:04.097Z,9.40
2019-05-05T16:55:38.331Z,9.30
2019-05-05T16:58:07.965Z,9.30
2019-05-05T17:00:38.126Z,9.30
2019-05-05T17:03:07.589Z,9.30
2019-05-05T17:05:37.308Z,9.30
2019-05-05T17:08:06.576Z,9.30
2019-05-05T17:10:36.393Z,9.30
2019-05-05T17:13:27.367Z,9.30
2019-05-05T17:16:19.020Z,9.30
2019-05-05T17:19:06.078Z,9.20
2019-05-05T17:21:54.584Z,9.30
2019-05-05T17:24:24.098Z,9.30
2019-05-05T17:26:54.969Z,9.30
2019-05-05T17:29:24.616Z,9.30
2019-05-05T17:31:54.231Z,9.30
2019-05-05T17:34:24.651Z,9.30
2019-05-05T17:36:54.439Z,9.40
2019-05-05T17:39:26.075Z,9.40
2019-05-05T17:42:14.499Z,9.40
2019-05-05T17:45:00.340Z,9.40
2019-05-05T17:47:54.775Z,9.40
2019-05-05T17:50:43.973Z,9.40
2019-05-05T17:53:24.579Z,9.30
2019-05-05T17:55:54.624Z,9.30
2019-05-05T17:58:24.710Z,9.30
2019-05-05T18:00:58.015Z,9.30
2019-05-05T18:03:27.240Z,9.20
2019-05-05T18:06:15.918Z,9.20
2019-05-05T18:08:48.964Z,9.20
2019-05-05T18:11:25.268Z,9.20
2019-05-05T18:13:58.241Z,9.10
2019-05-05T18:16:28.804Z,8.90
2019-05-05T18:18:58.446Z,8.40
2019-05-05T18:21:31.723Z,8.10
2019-05-05T18:23:59.187Z,8.10
2019-05-05T18:26:28.465Z,8.00
2019-05-05T18:28:58.369Z,7.90
2019-05-05T18:31:27.984Z,7.80
2019-05-05T18:33:57.264Z,7.90
2019-05-05T18:36:27.243Z,8.00
2019-05-05T18:38:56.861Z,8.20
2019-05-05T18:41:51.135Z,8.20
2019-05-05T18:44:27.879Z,8.30
2019-05-05T18:47:17.915Z,8.30
2019-05-05T18:49:45.622Z,8.20
2019-05-05T18:52:14.917Z,8.10
2019-05-05T18:54:44.787Z,8.00
2019-05-05T18:57:16.886Z,7.90
2019-05-05T18:59:46.139Z,7.80
2019-05-05T19:02:34.723Z,7.70
2019-05-05T19:05:34.427Z,7.60
2019-05-05T19:08:17.806Z,7.40
2019-05-05T19:10:47.189Z,7.30
2019-05-05T19:13:16.477Z,7.20
2019-05-05T19:15:45.745Z,7.20
2019-05-05T19:18:15.259Z,7.10
2019-05-05T19:20:59.660Z,7.10
2019-05-05T19:23:28.994Z,6.90
2019-05-05T19:25:58.369Z,6.90
2019-05-05T19:28:41.045Z,6.80
2019-05-05T19:30:58.621Z,6.80
2019-05-05T19:33:27.983Z,6.70
2019-05-05T19:35:57.267Z,6.70
2019-05-05T19:38:30.305Z,6.60
2019-05-05T19:41:00.391Z,6.60
2019-05-05T19:43:29.635Z,6.60
2019-05-05T19:45:58.904Z,6.50
2019-05-05T19:48:28.458Z,6.40
2019-05-05T19:51:01.037Z,6.40
2019-05-05T19:53:30.301Z,6.40
2019-05-05T19:55:59.968Z,6.40
2019-05-05T19:58:29.248Z,6.30
2019-05-05T20:01:04.606Z,6.30
2019-05-05T20:03:35.055Z,6.30
2019-05-05T20:06:05.090Z,6.20
2019-05-05T20:08:41.185Z,6.20
2019-05-05T20:11:05.748Z,6.20
2019-05-05T20:13:35.012Z,6.10
2019-05-05T20:16:10.339Z,6.10
2019-05-05T20:18:39.604Z,6.10
2019-05-05T20:21:08.952Z,6.00
2019-05-05T20:23:38.239Z,6.00
2019-05-05T20:26:07.475Z,6.00
2019-05-05T20:28:36.663Z,5.90
2019-05-05T20:31:06.285Z,5.90
2019-05-05T20:33:41.419Z,5.80
2019-05-05T20:36:23.781Z,5.80
2019-05-05T20:38:54.908Z,5.70
2019-05-05T20:41:25.150Z,5.60
2019-05-05T20:43:54.489Z,5.60
2019-05-05T20:46:24.876Z,5.60
2019-05-05T20:48:54.612Z,5.60
2019-05-05T20:51:24.366Z,5.50
2019-05-05T20:53:54.413Z,5.50
2019-05-05T20:56:24.353Z,5.50
2019-05-05T20:58:54.853Z,5.40
2019-05-05T21:01:24.703Z,5.40
2019-05-05T21:03:54.810Z,5.40
2019-05-05T21:06:24.581Z,5.30
2019-05-05T21:08:54.432Z,5.30
2019-05-05T21:11:24.679Z,5.20
2019-05-05T21:13:58.580Z,5.10
2019-05-05T21:16:27.775Z,5.10
2019-05-05T21:18:57.001Z,5.00
2019-05-05T21:21:28.291Z,4.90
2019-05-05T21:23:59.689Z,4.80
2019-05-05T21:26:46.621Z,4.70
2019-05-05T21:29:16.264Z,4.70
2019-05-05T21:31:45.495Z,4.60
2019-05-05T21:34:14.663Z,4.60
2019-05-05T21:36:44.954Z,4.60
2019-05-05T21:39:15.063Z,4.60
2019-05-05T21:41:44.643Z,4.60
2019-05-05T21:44:14.716Z,4.50
2019-05-05T21:46:44.067Z,4.50
2019-05-05T21:49:13.821Z,4.40
2019-05-05T21:51:59.420Z,4.40
2019-05-05T21:54:47.938Z,4.30
2019-05-05T21:57:44.990Z,4.30
2019-05-05T22:00:34.570Z,4.20
2019-05-05T22:03:05.138Z,4.20
2019-05-05T22:05:34.399Z,4.20
2019-05-05T22:08:04.844Z,4.20
2019-05-05T22:10:34.388Z,4.20
2019-05-05T22:13:04.862Z,4.20
2019-05-05T22:15:35.832Z,4.10
2019-05-05T22:18:05.216Z,4.00
2019-05-05T22:20:40.151Z,4.00
2019-05-05T22:23:09.334Z,4.10
2019-05-05T22:25:38.546Z,4.00
2019-05-05T22:28:07.729Z,4.10
2019-05-05T22:30:37.359Z,4.00
2019-05-05T22:33:07.044Z,4.00
2019-05-05T22:35:36.396Z,4.00
2019-05-05T22:38:06.178Z,4.00
2019-05-05T22:40:35.564Z,3.90
2019-05-05T22:43:04.731Z,3.90
2019-05-05T22:45:34.582Z,3.90
2019-05-05T22:48:04.733Z,3.90
2019-05-05T22:50:34.861Z,3.80
2019-05-05T22:53:04.380Z,3.80
2019-05-05T22:55:34.443Z,3.90
2019-05-05T22:58:04.452Z,3.90
2019-05-05T23:00:34.790Z,3.90
2019-05-05T23:03:11.004Z,3.90
2019-05-05T23:05:45.156Z,3.90
2019-05-05T23:08:14.314Z,3.80
2019-05-05T23:10:43.843Z,3.80
2019-05-05T23:13:13.555Z,3.70
2019-05-05T23:15:49.432Z,3.80
2019-05-05T23:18:25.445Z,3.80
2019-05-05T23:21:15.880Z,3.70
2019-05-05T23:24:03.686Z,3.70
2019-05-05T23:26:35.928Z,3.60
2019-05-05T23:29:05.510Z,3.60
2019-05-05T23:31:35.047Z,3.50
2019-05-05T23:34:04.327Z,3.50
2019-05-05T23:36:33.992Z,3.40
2019-05-05T23:39:05.388Z,3.40
2019-05-05T23:41:35.130Z,3.40
2019-05-05T23:44:04.841Z,3.30
2019-05-05T23:46:34.834Z,3.30
2019-05-05T23:49:04.828Z,3.30
2019-05-05T23:51:34.675Z,3.30
2019-05-05T23:54:04.571Z,3.40
2019-05-05T23:56:34.990Z,3.40
2019-05-05T23:59:04.628Z,3.40
